Morley, United Kingdom
Current Conditions -  °F | °C
As of 3:50 AM on Sunday 26 Oct 2014 (Local Time) from EGNM Reporting Station
Few Clouds Few Clouds  
Wind Chill: 10°   Ceiling: Unl
Heat Index: 10°   Visibility: 6mi
Dew Point:   Wind: 13mph
Humidity: 87%   Direction: 240°WSW
Pressure: 29.91"   Gusts: NA
Location:  53.74°N, 1.6°W
Report Text: EGNM 260250Z 24011KT 200V270 9999 FEW045 10/08 Q1013
Loading
Personal Weather Stations






























Interactive Weather Map
Tropical Storm Tracking
New forecast layout! Learn more

10-Day Weather Forecast

Advertisements
Track Severe Weather on mobile